»·PEaware :: ANZ1200 KFMN-KFLG

ANZ1200 :: KFMN-KFLG

FLIGHT INFORMATION

Flight Status: Arrived
Operator:
Air New Zealand
More flights by this operator :: More flights under this callsign
Pilot: Alan J. (5709)
Aircraft: FAIRCHILD F-27 FH-227
(F27)
More flights by this aircraft type
Origin: KFMN Four Corners Regl
United States
Destination: KFLG Flagstaff Pulliam
United States
More flights between these airports :: More routes between these airports
Route: +CHACO1 GUP V291 INW V572 FLG
File this flight plan on PilotEdge
Remarks: Callsign Air New Zealand
Altitude:
(Current/Filed)
24,000ft
Speed:
(Current/Filed)
270kts
Departed: 16-Jan-19 08:24 PM
Arrived: 16-Jan-19 09:29 PM
Distance/Time
Traveled:
193nm/1:05
Distance/Time
To Go:
Arrived

Flight Plot

Page will automatically refresh every two minutes.

Flight plan parsing failed; only flown route is shown


Map Options




Map Legend


Flown Route
Filed Route
Departure Airport
Arrival Airport
Navaid (VOR, NDB)
Fix

Horizontal Profiles

Position Reports

Time Latitude Longitude Heading Altitude Ground
Speed
16-Jan-19 19:56 36.739336 -108.228950 178 5512ft 0kts
16-Jan-19 19:57 36.739336 -108.228950 178 5512ft 0kts
16-Jan-19 19:58 36.739336 -108.228950 178 5512ft 0kts
16-Jan-19 19:58 36.739336 -108.228950 178 5512ft 0kts
16-Jan-19 20:00 36.739336 -108.228950 178 5512ft 0kts
16-Jan-19 20:00 36.739336 -108.228950 178 5512ft 0kts
16-Jan-19 20:02 36.739336 -108.228950 178 5512ft 0kts
16-Jan-19 20:03 36.739336 -108.228950 178 5512ft 0kts
16-Jan-19 20:03 36.739336 -108.228950 178 5512ft 0kts
16-Jan-19 20:04 36.739336 -108.228950 178 5512ft 0kts
16-Jan-19 20:05 36.739336 -108.228950 178 5512ft 0kts
16-Jan-19 20:06 36.739336 -108.228950 178 5512ft 0kts
16-Jan-19 20:07 36.739336 -108.228950 178 5512ft 0kts
16-Jan-19 20:08 36.739336 -108.228950 178 5512ft 0kts
16-Jan-19 20:09 36.739336 -108.228950 178 5512ft 0kts
16-Jan-19 20:10 36.739335 -108.228950 178 5512ft 0kts
16-Jan-19 20:11 36.739331 -108.228950 178 5512ft 0kts
16-Jan-19 20:12 36.739325 -108.228950 177 5512ft 0kts
16-Jan-19 20:13 36.739324 -108.228950 177 5512ft 0kts
16-Jan-19 20:14 36.739324 -108.228950 177 5512ft 0kts
16-Jan-19 20:15 36.739324 -108.228950 177 5512ft 0kts
16-Jan-19 20:16 36.739324 -108.228950 177 5512ft 0kts
16-Jan-19 20:17 36.739341 -108.228802 8 5512ft 2kts
16-Jan-19 20:18 36.740863 -108.228169 67 5512ft 8kts
16-Jan-19 20:19 36.740963 -108.222268 88 5512ft 22kts
16-Jan-19 20:20 36.741177 -108.217267 56 5512ft 0kts
16-Jan-19 20:21 36.741178 -108.217266 56 5512ft 0kts
16-Jan-19 20:22 36.741609 -108.218041 267 5512ft 16kts
16-Jan-19 20:23 36.733952 -108.266415 230 6490ft 205kts
16-Jan-19 20:24 36.684427 -108.250762 140 8413ft 212kts
16-Jan-19 20:25 36.637438 -108.201611 139 10146ft 226kts
16-Jan-19 20:26 36.579252 -108.197523 197 11632ft 220kts
16-Jan-19 20:27 36.525755 -108.228980 227 13299ft 212kts
16-Jan-19 20:28 36.475333 -108.267465 213 15642ft 220kts
16-Jan-19 20:29 36.415603 -108.293154 206 17999ft 234kts
16-Jan-19 20:30 36.350961 -108.313992 206 20136ft 243kts
16-Jan-19 20:31 36.285066 -108.336843 207 21951ft 249kts
16-Jan-19 20:32 36.217870 -108.361673 208 23386ft 258kts
16-Jan-19 20:33 36.145884 -108.391554 209 23353ft 274kts
16-Jan-19 20:34 36.076799 -108.421232 210 23646ft 249kts
16-Jan-19 20:35 36.013693 -108.452193 223 24311ft 235kts
16-Jan-19 20:36 35.961649 -108.503001 229 24365ft 243kts
16-Jan-19 20:37 35.909700 -108.556480 229 24364ft 243kts
16-Jan-19 20:38 35.857674 -108.610444 229 24366ft 244kts
16-Jan-19 20:39 35.803213 -108.661308 224 24369ft 247kts
16-Jan-19 20:40 35.747079 -108.710639 225 24369ft 247kts
16-Jan-19 20:41 35.684271 -108.749354 210 24369ft 257kts
16-Jan-19 20:42 35.619975 -108.785911 216 24370ft 253kts
16-Jan-19 20:43 35.556470 -108.824356 214 24368ft 254kts
16-Jan-19 20:44 35.491276 -108.858574 225 24363ft 245kts
16-Jan-19 20:45 35.460957 -108.928126 257 24372ft 229kts
16-Jan-19 20:46 35.444593 -109.003730 259 24372ft 229kts
16-Jan-19 20:47 35.428877 -109.079542 259 24374ft 229kts
16-Jan-19 20:48 35.413360 -109.155775 259 24378ft 230kts
16-Jan-19 20:49 35.397605 -109.231749 259 24378ft 230kts
16-Jan-19 20:50 35.381623 -109.307658 258 24377ft 230kts
16-Jan-19 20:51 35.365436 -109.383914 258 24377ft 231kts
16-Jan-19 20:52 35.349286 -109.459969 258 24375ft 231kts
16-Jan-19 20:53 35.333156 -109.536279 258 24372ft 231kts
16-Jan-19 20:54 35.317239 -109.612317 258 24372ft 230kts
16-Jan-19 20:55 35.301294 -109.688315 258 24371ft 231kts
16-Jan-19 20:56 35.284808 -109.764458 258 24370ft 231kts
16-Jan-19 20:57 35.268519 -109.840292 258 24370ft 231kts
16-Jan-19 20:58 35.252053 -109.916317 258 24370ft 231kts
16-Jan-19 20:59 35.235403 -109.992648 257 24358ft 232kts
16-Jan-19 21:00 35.219228 -110.069103 257 24361ft 233kts
16-Jan-19 21:01 35.202758 -110.146094 256 24360ft 234kts
16-Jan-19 21:02 35.185909 -110.222824 257 24358ft 234kts
16-Jan-19 21:03 35.169031 -110.299773 256 24355ft 234kts
16-Jan-19 21:04 35.152057 -110.377038 256 24354ft 233kts
16-Jan-19 21:05 35.134968 -110.455427 256 23469ft 245kts
16-Jan-19 21:06 35.116872 -110.538385 255 21829ft 256kts
16-Jan-19 21:07 35.098146 -110.622159 256 20262ft 253kts
16-Jan-19 21:08 35.081045 -110.704595 261 18734ft 247kts
16-Jan-19 21:09 35.069521 -110.786545 262 17228ft 242kts
16-Jan-19 21:10 35.083823 -110.863197 305 15655ft 244kts
16-Jan-19 21:11 35.116708 -110.921585 290 14072ft 189kts
16-Jan-19 21:12 35.140383 -110.976080 296 12438ft 176kts
16-Jan-19 21:13 35.163231 -111.028822 296 10846ft 182kts
16-Jan-19 21:14 35.184718 -111.077640 295 10998ft 165kts
16-Jan-19 21:15 35.206666 -111.128283 295 10898ft 175kts
16-Jan-19 21:16 35.230627 -111.183851 296 10491ft 182kts
16-Jan-19 21:17 35.254016 -111.237262 296 10498ft 175kts
16-Jan-19 21:18 35.276762 -111.289536 295 10500ft 173kts
16-Jan-19 21:19 35.299351 -111.341831 295 10501ft 173kts
16-Jan-19 21:20 35.321884 -111.393874 294 10505ft 172kts
16-Jan-19 21:21 35.320606 -111.451022 246 10470ft 173kts
16-Jan-19 21:22 35.289989 -111.495393 225 9950ft 173kts
16-Jan-19 21:23 35.257739 -111.528017 221 10050ft 146kts
16-Jan-19 21:24 35.229598 -111.565540 234 9612ft 155kts
16-Jan-19 21:25 35.199959 -111.606135 221 8559ft 155kts
16-Jan-19 21:26 35.167935 -111.639823 221 7774ft 136kts
16-Jan-19 21:27 35.143278 -111.666063 221 7025ft 108kts
16-Jan-19 21:28 35.131484 -111.678964 289 7017ft 12kts
16-Jan-19 21:29 35.132210 -111.679008 46 7017ft 0kts
16-Jan-19 21:30 35.132639 -111.678523 41 7017ft 5kts
16-Jan-19 21:31 35.134414 -111.676608 41 7017ft 8kts
16-Jan-19 21:32 35.135276 -111.677012 311 7017ft 6kts
16-Jan-19 21:33 35.135335 -111.677095 310 7017ft 0kts
16-Jan-19 21:34 35.135335 -111.677095 310 7014ft 0kts

Navigation Log

Ident Type
Flight plan parsing failed, navigation log unavailable